sensor_id;sensor_type;location;lat;lon;timestamp;pressure;altitude;pressure_sealevel;temperature;humidity
29383;BME280;16365;51.598;7.668;2023-04-22T00:00:06;100235.63;;;18.05;48.18
29383;BME280;16365;51.598;7.668;2023-04-22T00:02:34;100228.78;;;18.02;48.45
29383;BME280;16365;51.598;7.668;2023-04-22T00:05:04;100230.78;;;18.02;48.03
29383;BME280;16365;51.598;7.668;2023-04-22T00:07:32;100238.75;;;17.96;47.76
29383;BME280;16365;51.598;7.668;2023-04-22T00:09:58;100235.88;;;17.89;48.14
29383;BME280;16365;51.598;7.668;2023-04-22T00:12:25;100229.84;;;17.83;48.43
29383;BME280;16365;51.598;7.668;2023-04-22T00:14:53;100231.00;;;17.79;48.48
29383;BME280;16365;51.598;7.668;2023-04-22T00:17:19;100231.81;;;17.76;47.83
29383;BME280;16365;51.598;7.668;2023-04-22T00:19:46;100228.53;;;17.70;47.89
29383;BME280;16365;51.598;7.668;2023-04-22T00:22:12;100226.50;;;17.67;48.29
29383;BME280;16365;51.598;7.668;2023-04-22T00:24:39;100224.03;;;17.62;48.43
29383;BME280;16365;51.598;7.668;2023-04-22T00:27:06;100228.41;;;17.59;48.39
29383;BME280;16365;51.598;7.668;2023-04-22T00:29:33;100227.59;;;17.55;48.11
29383;BME280;16365;51.598;7.668;2023-04-22T00:32:01;100226.75;;;17.51;48.46
29383;BME280;16365;51.598;7.668;2023-04-22T00:34:27;100222.72;;;17.48;48.41
29383;BME280;16365;51.598;7.668;2023-04-22T00:36:54;100225.88;;;17.43;48.03
29383;BME280;16365;51.598;7.668;2023-04-22T00:39:22;100227.84;;;17.39;47.93
29383;BME280;16365;51.598;7.668;2023-04-22T00:41:48;100223.38;;;17.35;48.45
29383;BME280;16365;51.598;7.668;2023-04-22T00:44:16;100224.53;;;17.30;48.32
29383;BME280;16365;51.598;7.668;2023-04-22T00:46:44;100220.09;;;17.26;48.24
29383;BME280;16365;51.598;7.668;2023-04-22T00:49:11;100217.28;;;17.22;48.63
29383;BME280;16365;51.598;7.668;2023-04-22T00:51:37;100218.03;;;17.19;48.46
29383;BME280;16365;51.598;7.668;2023-04-22T00:54:03;100215.19;;;17.15;48.80
29383;BME280;16365;51.598;7.668;2023-04-22T00:56:32;100220.78;;;17.12;48.60
29383;BME280;16365;51.598;7.668;2023-04-22T00:59:00;100216.34;;;17.11;48.60
29383;BME280;16365;51.598;7.668;2023-04-22T01:01:29;100213.53;;;17.07;48.64
29383;BME280;16365;51.598;7.668;2023-04-22T01:03:56;100212.28;;;17.05;49.05
29383;BME280;16365;51.598;7.668;2023-04-22T01:06:23;100211.91;;;17.06;47.92
29383;BME280;16365;51.598;7.668;2023-04-22T01:08:50;100214.63;;;16.99;47.97
29383;BME280;16365;51.598;7.668;2023-04-22T01:11:17;100203.34;;;16.92;48.49
29383;BME280;16365;51.598;7.668;2023-04-22T01:13:43;100211.28;;;16.86;48.20
29383;BME280;16365;51.598;7.668;2023-04-22T01:16:10;100209.63;;;16.82;48.59
29383;BME280;16365;51.598;7.668;2023-04-22T01:18:37;100215.22;;;16.78;48.58
29383;BME280;16365;51.598;7.668;2023-04-22T01:21:04;100211.97;;;16.76;49.09
29383;BME280;16365;51.598;7.668;2023-04-22T01:23:30;100205.56;;;16.76;48.73
29383;BME280;16365;51.598;7.668;2023-04-22T01:25:57;100222.75;;;16.74;49.13
29383;BME280;16365;51.598;7.668;2023-04-22T01:28:24;100217.97;;;16.75;48.96
29383;BME280;16365;51.598;7.668;2023-04-22T01:30:52;100219.16;;;16.74;48.78
29383;BME280;16365;51.598;7.668;2023-04-22T01:33:19;100211.94;;;16.73;49.09
29383;BME280;16365;51.598;7.668;2023-04-22T01:35:46;100214.72;;;16.73;48.90
29383;BME280;16365;51.598;7.668;2023-04-22T01:38:13;100220.31;;;16.73;49.04
29383;BME280;16365;51.598;7.668;2023-04-22T01:40:39;100213.91;;;16.72;49.12
29383;BME280;16365;51.598;7.668;2023-04-22T01:43:06;100215.56;;;16.73;49.22
29383;BME280;16365;51.598;7.668;2023-04-22T01:45:32;100213.91;;;16.72;49.27
29383;BME280;16365;51.598;7.668;2023-04-22T01:47:59;100211.94;;;16.73;49.07
29383;BME280;16365;51.598;7.668;2023-04-22T01:50:25;100221.53;;;16.72;49.06
29383;BME280;16365;51.598;7.668;2023-04-22T01:52:52;100218.72;;;16.72;48.97
29383;BME280;16365;51.598;7.668;2023-04-22T01:55:19;100223.13;;;16.73;49.06
29383;BME280;16365;51.598;7.668;2023-04-22T01:57:45;100219.16;;;16.74;49.24
29383;BME280;16365;51.598;7.668;2023-04-22T02:00:12;100220.31;;;16.73;49.07
29383;BME280;16365;51.598;7.668;2023-04-22T02:02:39;100222.31;;;16.72;49.19
29383;BME280;16365;51.598;7.668;2023-04-22T02:05:06;100222.69;;;16.70;48.62
29383;BME280;16365;51.598;7.668;2023-04-22T02:07:35;100219.09;;;16.70;49.16
29383;BME280;16365;51.598;7.668;2023-04-22T02:10:05;100219.84;;;16.67;49.30
29383;BME280;16365;51.598;7.668;2023-04-22T02:12:32;100225.44;;;16.67;49.22
29383;BME280;16365;51.598;7.668;2023-04-22T02:14:58;100225.44;;;16.67;49.31
29383;BME280;16365;51.598;7.668;2023-04-22T02:17:25;100221.03;;;16.66;49.26
29383;BME280;16365;51.598;7.668;2023-04-22T02:19:52;100224.63;;;16.66;49.01
29383;BME280;16365;51.598;7.668;2023-04-22T02:22:18;100232.22;;;16.66;48.86
29383;BME280;16365;51.598;7.668;2023-04-22T02:24:46;100226.22;;;16.64;49.43
29383;BME280;16365;51.598;7.668;2023-04-22T02:27:12;100220.63;;;16.64;48.91
29383;BME280;16365;51.598;7.668;2023-04-22T02:29:38;100212.16;;;16.60;49.05
29383;BME280;16365;51.598;7.668;2023-04-22T02:32:08;100218.56;;;16.61;49.19
29383;BME280;16365;51.598;7.668;2023-04-22T02:34:34;100207.75;;;16.59;49.21
29383;BME280;16365;51.598;7.668;2023-04-22T02:37:01;100228.16;;;16.60;49.23
29383;BME280;16365;51.598;7.668;2023-04-22T02:39:28;100223.75;;;16.59;49.23
29383;BME280;16365;51.598;7.668;2023-04-22T02:41:54;100222.91;;;16.58;49.51
29383;BME280;16365;51.598;7.668;2023-04-22T02:44:21;100216.16;;;16.59;49.25
29383;BME280;16365;51.598;7.668;2023-04-22T02:46:47;100224.56;;;16.59;49.43
29383;BME280;16365;51.598;7.668;2023-04-22T02:49:14;100221.75;;;16.59;49.47
29383;BME280;16365;51.598;7.668;2023-04-22T02:51:40;100218.16;;;16.59;49.20
29383;BME280;16365;51.598;7.668;2023-04-22T02:54:07;100227.72;;;16.58;49.13
29383;BME280;16365;51.598;7.668;2023-04-22T02:56:33;100227.28;;;16.56;49.36
29383;BME280;16365;51.598;7.668;2023-04-22T02:59:02;100220.09;;;16.55;49.55
29383;BME280;16365;51.598;7.668;2023-04-22T03:01:29;100213.31;;;16.56;49.36
29383;BME280;16365;51.598;7.668;2023-04-22T03:03:56;100210.13;;;16.57;49.76
29383;BME280;16365;51.598;7.668;2023-04-22T03:06:22;100204.91;;;16.56;49.70
29383;BME280;16365;51.598;7.668;2023-04-22T03:08:49;100203.72;;;16.57;49.54
29383;BME280;16365;51.598;7.668;2023-04-22T03:11:16;100198.13;;;16.57;49.42
29383;BME280;16365;51.598;7.668;2023-04-22T03:13:42;100202.53;;;16.58;49.79
29383;BME280;16365;51.598;7.668;2023-04-22T03:16:09;100199.38;;;16.59;49.55
29383;BME280;16365;51.598;7.668;2023-04-22T03:18:35;100196.19;;;16.61;49.47
29383;BME280;16365;51.598;7.668;2023-04-22T03:21:02;100189.38;;;16.62;49.56
29383;BME280;16365;51.598;7.668;2023-04-22T03:23:29;100199.38;;;16.63;49.90
29383;BME280;16365;51.598;7.668;2023-04-22T03:25:55;100195.84;;;16.66;49.34
29383;BME280;16365;51.598;7.668;2023-04-22T03:28:22;100194.28;;;16.68;49.82
29383;BME280;16365;51.598;7.668;2023-04-22T03:30:49;100185.50;;;16.70;49.67
29383;BME280;16365;51.598;7.668;2023-04-22T03:33:15;100185.13;;;16.72;49.58
29383;BME280;16365;51.598;7.668;2023-04-22T03:35:42;100192.69;;;16.71;49.31
29383;BME280;16365;51.598;7.668;2023-04-22T03:38:08;100189.53;;;16.73;49.37
29383;BME280;16365;51.598;7.668;2023-04-22T03:40:35;100183.94;;;16.73;49.52
29383;BME280;16365;51.598;7.668;2023-04-22T03:43:01;100181.97;;;16.73;49.35
29383;BME280;16365;51.598;7.668;2023-04-22T03:45:29;100180.78;;;16.74;50.09
29383;BME280;16365;51.598;7.668;2023-04-22T03:47:56;100178.44;;;16.80;49.33
29383;BME280;16365;51.598;7.668;2023-04-22T03:50:23;100176.03;;;16.78;49.17
29383;BME280;16365;51.598;7.668;2023-04-22T03:52:52;100173.22;;;16.78;49.29
29383;BME280;16365;51.598;7.668;2023-04-22T03:55:19;100172.38;;;16.78;49.42
29383;BME280;16365;51.598;7.668;2023-04-22T03:57:45;100164.81;;;16.78;49.58
29383;BME280;16365;51.598;7.668;2023-04-22T04:00:12;100172.03;;;16.79;49.45
29383;BME280;16365;51.598;7.668;2023-04-22T04:02:39;100163.63;;;16.79;49.24
29383;BME280;16365;51.598;7.668;2023-04-22T04:05:05;100158.03;;;16.79;49.75
29383;BME280;16365;51.598;7.668;2023-04-22T04:07:34;100161.63;;;16.80;49.48
29383;BME280;16365;51.598;7.668;2023-04-22T04:10:01;100171.63;;;16.81;49.32
29383;BME280;16365;51.598;7.668;2023-04-22T04:12:28;100165.66;;;16.82;49.66
29383;BME280;16365;51.598;7.668;2023-04-22T04:14:54;100164.84;;;16.82;49.69
29383;BME280;16365;51.598;7.668;2023-04-22T04:17:20;100158.44;;;16.81;49.49
29383;BME280;16365;51.598;7.668;2023-04-22T04:19:52;100166.03;;;16.81;49.50
29383;BME280;16365;51.598;7.668;2023-04-22T04:22:18;100153.63;;;16.82;49.65
29383;BME280;16365;51.598;7.668;2023-04-22T04:24:45;100153.63;;;16.82;49.25
29383;BME280;16365;51.598;7.668;2023-04-22T04:27:13;100151.63;;;16.82;49.34
29383;BME280;16365;51.598;7.668;2023-04-22T04:29:40;100150.47;;;16.83;49.50
29383;BME280;16365;51.598;7.668;2023-04-22T04:32:07;100147.28;;;16.85;49.51
29383;BME280;16365;51.598;7.668;2023-04-22T04:34:35;100143.28;;;16.86;49.60
29383;BME280;16365;51.598;7.668;2023-04-22T04:37:02;100142.91;;;16.87;49.94
29383;BME280;16365;51.598;7.668;2023-04-22T04:39:29;100153.72;;;16.89;49.52
29383;BME280;16365;51.598;7.668;2023-04-22T04:41:55;100151.72;;;16.89;49.82
29383;BME280;16365;51.598;7.668;2023-04-22T04:44:24;100144.13;;;16.90;49.64
29383;BME280;16365;51.598;7.668;2023-04-22T04:46:51;100139.72;;;16.89;49.59
29383;BME280;16365;51.598;7.668;2023-04-22T04:49:20;100131.75;;;16.91;50.22
29383;BME280;16365;51.598;7.668;2023-04-22T04:51:46;100133.78;;;16.94;49.31
29383;BME280;16365;51.598;7.668;2023-04-22T04:54:13;100126.56;;;16.93;49.24
29383;BME280;16365;51.598;7.668;2023-04-22T04:56:39;100132.19;;;16.93;49.55
29383;BME280;16365;51.598;7.668;2023-04-22T04:59:06;100132.19;;;16.93;49.79
29383;BME280;16365;51.598;7.668;2023-04-22T05:01:32;100121.78;;;16.93;49.26
29383;BME280;16365;51.598;7.668;2023-04-22T05:03:59;100128.97;;;16.94;49.85
29383;BME280;16365;51.598;7.668;2023-04-22T05:06:26;100130.59;;;16.95;49.51
29383;BME280;16365;51.598;7.668;2023-04-22T05:08:53;100129.81;;;16.99;49.76
29383;BME280;16365;51.598;7.668;2023-04-22T05:11:19;100128.22;;;16.98;49.62
29383;BME280;16365;51.598;7.668;2023-04-22T05:13:45;100124.22;;;16.99;49.29
29383;BME280;16365;51.598;7.668;2023-04-22T05:16:12;100129.81;;;16.99;49.49
29383;BME280;16365;51.598;7.668;2023-04-22T05:18:39;100128.63;;;17.00;49.75
29383;BME280;16365;51.598;7.668;2023-04-22T05:21:06;100131.44;;;17.00;49.62
29383;BME280;16365;51.598;7.668;2023-04-22T05:23:34;100133.84;;;17.01;49.91
29383;BME280;16365;51.598;7.668;2023-04-22T05:26:00;100139.88;;;17.03;49.75
29383;BME280;16365;51.598;7.668;2023-04-22T05:28:27;100133.47;;;17.03;49.74
29383;BME280;16365;51.598;7.668;2023-04-22T05:30:53;100125.06;;;17.06;49.59
29383;BME280;16365;51.598;7.668;2023-04-22T05:33:20;100135.47;;;17.06;49.95
29383;BME280;16365;51.598;7.668;2023-04-22T05:35:46;100137.50;;;17.09;49.63
29383;BME280;16365;51.598;7.668;2023-04-22T05:38:14;100130.72;;;17.10;50.00
29383;BME280;16365;51.598;7.668;2023-04-22T05:40:40;100135.91;;;17.11;49.60
29383;BME280;16365;51.598;7.668;2023-04-22T05:43:07;100141.16;;;17.13;49.94
29383;BME280;16365;51.598;7.668;2023-04-22T05:45:34;100133.97;;;17.15;50.17
29383;BME280;16365;51.598;7.668;2023-04-22T05:48:01;100126.00;;;17.17;50.00
29383;BME280;16365;51.598;7.668;2023-04-22T05:50:27;100113.59;;;17.18;50.04
29383;BME280;16365;51.598;7.668;2023-04-22T05:52:54;100116.84;;;17.24;50.07
29383;BME280;16365;51.598;7.668;2023-04-22T05:55:21;100111.66;;;17.26;50.03
29383;BME280;16365;51.598;7.668;2023-04-22T05:57:48;100116.47;;;17.29;49.71
29383;BME280;16365;51.598;7.668;2023-04-22T06:00:16;100108.09;;;17.33;49.76
29383;BME280;16365;51.598;7.668;2023-04-22T06:02:43;100115.75;;;17.36;49.62
29383;BME280;16365;51.598;7.668;2023-04-22T06:05:09;100120.59;;;17.42;49.96
29383;BME280;16365;51.598;7.668;2023-04-22T06:07:36;100122.22;;;17.47;49.60
29383;BME280;16365;51.598;7.668;2023-04-22T06:10:02;100117.84;;;17.53;49.48
29383;BME280;16365;51.598;7.668;2023-04-22T06:12:32;100117.91;;;17.60;49.69
29383;BME280;16365;51.598;7.668;2023-04-22T06:14:59;100117.94;;;17.67;49.47
29383;BME280;16365;51.598;7.668;2023-04-22T06:17:26;100123.19;;;17.72;49.52
29383;BME280;16365;51.598;7.668;2023-04-22T06:19:53;100114.03;;;17.79;49.26
29383;BME280;16365;51.598;7.668;2023-04-22T06:22:20;100115.66;;;17.84;48.72
29383;BME280;16365;51.598;7.668;2023-04-22T06:24:46;100114.13;;;17.90;49.17
29383;BME280;16365;51.598;7.668;2023-04-22T06:27:13;100121.75;;;17.96;49.00
29383;BME280;16365;51.598;7.668;2023-04-22T06:29:40;100112.97;;;18.02;48.90
29383;BME280;16365;51.598;7.668;2023-04-22T06:32:06;100117.78;;;18.08;48.75
29383;BME280;16365;51.598;7.668;2023-04-22T06:34:33;100126.66;;;18.14;48.81
29383;BME280;16365;51.598;7.668;2023-04-22T06:36:59;100123.06;;;18.20;48.49
29383;BME280;16365;51.598;7.668;2023-04-22T06:39:26;100112.28;;;18.26;49.24
29383;BME280;16365;51.598;7.668;2023-04-22T06:41:52;100109.50;;;18.33;48.73
29383;BME280;16365;51.598;7.668;2023-04-22T06:44:19;100119.16;;;18.39;48.54
29383;BME280;16365;51.598;7.668;2023-04-22T06:46:45;100113.94;;;18.45;48.33
29383;BME280;16365;51.598;7.668;2023-04-22T06:49:12;100113.97;;;18.52;48.50
29383;BME280;16365;51.598;7.668;2023-04-22T06:51:38;100108.38;;;18.59;48.39
29383;BME280;16365;51.598;7.668;2023-04-22T06:54:04;100106.78;;;18.65;48.43
29383;BME280;16365;51.598;7.668;2023-04-22T06:56:31;100115.25;;;18.72;48.61
29383;BME280;16365;51.598;7.668;2023-04-22T06:58:57;100120.06;;;18.79;48.43
29383;BME280;16365;51.598;7.668;2023-04-22T07:01:24;100119.69;;;18.88;48.55
29383;BME280;16365;51.598;7.668;2023-04-22T07:03:58;100122.13;;;18.96;48.55
29383;BME280;16365;51.598;7.668;2023-04-22T07:06:25;100113.31;;;19.05;48.38
29383;BME280;16365;51.598;7.668;2023-04-22T07:08:52;100115.69;;;19.14;48.36
29383;BME280;16365;51.598;7.668;2023-04-22T07:11:20;100106.88;;;19.22;48.48
29383;BME280;16365;51.598;7.668;2023-04-22T07:13:47;100112.47;;;19.33;48.30
29383;BME280;16365;51.598;7.668;2023-04-22T07:16:13;100106.88;;;19.44;47.93
29383;BME280;16365;51.598;7.668;2023-04-22T07:18:40;100104.44;;;19.53;47.88
29383;BME280;16365;51.598;7.668;2023-04-22T07:21:06;100102.84;;;19.63;47.85
29383;BME280;16365;51.598;7.668;2023-04-22T07:23:33;100093.19;;;19.74;47.90
29383;BME280;16365;51.598;7.668;2023-04-22T07:26:00;100105.19;;;19.86;47.86
29383;BME280;16365;51.598;7.668;2023-04-22T07:28:26;100104.78;;;19.98;47.39
29383;BME280;16365;51.598;7.668;2023-04-22T07:30:53;100108.34;;;20.09;47.43
29383;BME280;16365;51.598;7.668;2023-04-22T07:33:19;100107.91;;;20.21;47.37
29383;BME280;16365;51.598;7.668;2023-04-22T07:35:47;100113.50;;;20.32;47.07
29383;BME280;16365;51.598;7.668;2023-04-22T07:38:13;100105.00;;;20.43;46.93
29383;BME280;16365;51.598;7.668;2023-04-22T07:40:40;100097.72;;;20.52;46.76
29383;BME280;16365;51.598;7.668;2023-04-22T07:43:06;100105.31;;;20.63;46.67
29383;BME280;16365;51.598;7.668;2023-04-22T07:45:33;100101.63;;;20.73;46.85
29383;BME280;16365;51.598;7.668;2023-04-22T07:47:59;100098.78;;;20.80;47.00
29383;BME280;16365;51.598;7.668;2023-04-22T07:50:26;100093.47;;;20.89;47.31
29383;BME280;16365;51.598;7.668;2023-04-22T07:52:53;100093.81;;;20.98;46.83
29383;BME280;16365;51.598;7.668;2023-04-22T07:55:19;100088.09;;;21.09;46.38
29383;BME280;16365;51.598;7.668;2023-04-22T07:57:46;100087.63;;;21.18;46.04
29383;BME280;16365;51.598;7.668;2023-04-22T08:00:13;100081.47;;;21.26;45.69
29383;BME280;16365;51.598;7.668;2023-04-22T08:02:40;100084.25;;;21.37;46.04
29383;BME280;16365;51.598;7.668;2023-04-22T08:05:09;100084.94;;;21.48;46.25
29383;BME280;16365;51.598;7.668;2023-04-22T08:07:37;100083.59;;;21.60;45.85
29383;BME280;16365;51.598;7.668;2023-04-22T08:10:04;100077.03;;;21.74;45.87
29383;BME280;16365;51.598;7.668;2023-04-22T08:12:31;100072.81;;;21.89;45.09
29383;BME280;16365;51.598;7.668;2023-04-22T08:14:57;100062.47;;;22.10;45.62
29383;BME280;16365;51.598;7.668;2023-04-22T08:17:24;100069.53;;;22.28;45.77
29383;BME280;16365;51.598;7.668;2023-04-22T08:19:51;100051.88;;;22.51;45.40
29383;BME280;16365;51.598;7.668;2023-04-22T08:22:18;100055.53;;;22.75;45.42
29383;BME280;16365;51.598;7.668;2023-04-22T08:24:44;100055.97;;;23.01;44.35
29383;BME280;16365;51.598;7.668;2023-04-22T08:27:11;100051.56;;;23.23;43.82
29383;BME280;16365;51.598;7.668;2023-04-22T08:29:37;100055.16;;;23.47;43.14
29383;BME280;16365;51.598;7.668;2023-04-22T08:32:04;100044.69;;;23.68;42.27
29383;BME280;16365;51.598;7.668;2023-04-22T08:34:31;100051.25;;;23.84;41.26
29383;BME280;16365;51.598;7.668;2023-04-22T08:36:57;100054.59;;;23.99;40.94
29383;BME280;16365;51.598;7.668;2023-04-22T08:39:24;100047.47;;;24.11;39.83
29383;BME280;16365;51.598;7.668;2023-04-22T08:41:51;100055.81;;;24.18;40.18
29383;BME280;16365;51.598;7.668;2023-04-22T08:44:21;100049.19;;;24.25;39.40
29383;BME280;16365;51.598;7.668;2023-04-22T08:46:47;100049.03;;;24.32;39.66
29383;BME280;16365;51.598;7.668;2023-04-22T08:49:15;100044.50;;;24.38;39.79
29383;BME280;16365;51.598;7.668;2023-04-22T08:51:42;100049.97;;;24.45;39.77
29383;BME280;16365;51.598;7.668;2023-04-22T08:54:10;100043.38;;;24.52;39.02
29383;BME280;16365;51.598;7.668;2023-04-22T08:56:41;100034.34;;;24.57;37.75
29383;BME280;16365;51.598;7.668;2023-04-22T08:59:12;100047.09;;;24.65;37.17
29383;BME280;16365;51.598;7.668;2023-04-22T09:01:39;100041.25;;;24.72;38.14
29383;BME280;16365;51.598;7.668;2023-04-22T09:04:08;100034.28;;;24.77;37.44
29383;BME280;16365;51.598;7.668;2023-04-22T09:06:37;100038.97;;;24.83;37.58
29383;BME280;16365;51.598;7.668;2023-04-22T09:09:04;100021.41;;;24.88;37.35
29383;BME280;16365;51.598;7.668;2023-04-22T09:11:32;100030.97;;;24.95;37.74
29383;BME280;16365;51.598;7.668;2023-04-22T09:13:58;100028.84;;;24.99;37.30
29383;BME280;16365;51.598;7.668;2023-04-22T09:16:24;100036.03;;;25.03;36.61
29383;BME280;16365;51.598;7.668;2023-04-22T09:18:51;100026.66;;;25.06;36.50
29383;BME280;16365;51.598;7.668;2023-04-22T09:21:19;100016.47;;;25.09;35.88
29383;BME280;16365;51.598;7.668;2023-04-22T09:23:50;100014.00;;;25.11;35.63
29383;BME280;16365;51.598;7.668;2023-04-22T09:26:20;100014.34;;;25.13;35.32
29383;BME280;16365;51.598;7.668;2023-04-22T09:28:55;100016.31;;;25.16;35.27
29383;BME280;16365;51.598;7.668;2023-04-22T09:31:24;100015.75;;;25.21;36.23
29383;BME280;16365;51.598;7.668;2023-04-22T09:33:53;100020.97;;;25.23;35.58
29383;BME280;16365;51.598;7.668;2023-04-22T09:36:30;100022.94;;;25.26;35.55
29383;BME280;16365;51.598;7.668;2023-04-22T09:39:01;100015.84;;;25.34;35.14
29383;BME280;16365;51.598;7.668;2023-04-22T09:41:36;100008.81;;;25.38;35.02
29383;BME280;16365;51.598;7.668;2023-04-22T09:44:15;99997.34;;;25.42;34.63
29383;BME280;16365;51.598;7.668;2023-04-22T09:46:43;99994.75;;;25.48;35.29
29383;BME280;16365;51.598;7.668;2023-04-22T09:49:10;100001.94;;;25.52;35.03
29383;BME280;16365;51.598;7.668;2023-04-22T09:51:39;99996.25;;;25.52;34.48
29383;BME280;16365;51.598;7.668;2023-04-22T09:54:08;99996.63;;;25.54;35.10
29383;BME280;16365;51.598;7.668;2023-04-22T09:56:45;99992.53;;;25.55;34.22
29383;BME280;16365;51.598;7.668;2023-04-22T09:59:18;99986.31;;;25.60;34.70
29383;BME280;16365;51.598;7.668;2023-04-22T10:01:47;99985.28;;;25.67;34.55
29383;BME280;16365;51.598;7.668;2023-04-22T10:04:14;99978.25;;;25.72;34.87
29383;BME280;16365;51.598;7.668;2023-04-22T10:06:46;99975.72;;;25.77;34.79
29383;BME280;16365;51.598;7.668;2023-04-22T10:09:16;99977.63;;;25.80;34.31
29383;BME280;16365;51.598;7.668;2023-04-22T10:11:44;99969.72;;;25.88;34.96
29383;BME280;16365;51.598;7.668;2023-04-22T10:14:12;99969.50;;;25.95;34.22
29383;BME280;16365;51.598;7.668;2023-04-22T10:16:46;99969.84;;;25.97;33.73
29383;BME280;16365;51.598;7.668;2023-04-22T10:19:16;99971.22;;;26.05;34.73
29383;BME280;16365;51.598;7.668;2023-04-22T10:21:46;99950.75;;;26.10;34.60
29383;BME280;16365;51.598;7.668;2023-04-22T10:24:15;99955.44;;;26.17;34.20
29383;BME280;16365;51.598;7.668;2023-04-22T10:26:47;99950.31;;;26.25;34.16
29383;BME280;16365;51.598;7.668;2023-04-22T10:29:18;99952.16;;;26.31;33.91
29383;BME280;16365;51.598;7.668;2023-04-22T10:34:29;99956.47;;;26.49;33.58
29383;BME280;16365;51.598;7.668;2023-04-22T10:37:04;99949.09;;;26.51;32.52
29383;BME280;16365;51.598;7.668;2023-04-22T10:39:31;99950.47;;;26.59;33.48
29383;BME280;16365;51.598;7.668;2023-04-22T10:44:31;99944.84;;;26.69;32.42
29383;BME280;16365;51.598;7.668;2023-04-22T10:47:10;99936.09;;;26.76;32.82
29383;BME280;16365;51.598;7.668;2023-04-22T10:49:37;99941.09;;;26.84;32.69
29383;BME280;16365;51.598;7.668;2023-04-22T10:52:05;99935.50;;;26.94;32.53
29383;BME280;16365;51.598;7.668;2023-04-22T10:57:05;99935.34;;;27.10;32.31
29383;BME280;16365;51.598;7.668;2023-04-22T10:59:44;99935.91;;;27.18;32.06
29383;BME280;16365;51.598;7.668;2023-04-22T11:02:13;99937.09;;;27.29;31.61
29383;BME280;16365;51.598;7.668;2023-04-22T11:04:39;99941.59;;;27.39;31.47
29383;BME280;16365;51.598;7.668;2023-04-22T11:07:29;99932.81;;;27.47;31.74
29383;BME280;16365;51.598;7.668;2023-04-22T11:17:33;99921.28;;;27.72;30.27
29383;BME280;16365;51.598;7.668;2023-04-22T11:20:00;99913.84;;;27.75;30.58
29383;BME280;16365;51.598;7.668;2023-04-22T11:22:27;99909.75;;;27.76;30.68
29383;BME280;16365;51.598;7.668;2023-04-22T11:24:59;99912.25;;;27.74;30.26
29383;BME280;16365;51.598;7.668;2023-04-22T11:27:26;99910.22;;;27.74;30.70
29383;BME280;16365;51.598;7.668;2023-04-22T11:32:39;99903.25;;;27.75;29.92
29383;BME280;16365;51.598;7.668;2023-04-22T11:35:09;99918.94;;;27.80;30.45
29383;BME280;16365;51.598;7.668;2023-04-22T11:37:47;99910.41;;;27.80;29.44
29383;BME280;16365;51.598;7.668;2023-04-22T11:40:17;99923.25;;;27.84;29.61
29383;BME280;16365;51.598;7.668;2023-04-22T11:42:47;99920.75;;;27.86;29.69
29383;BME280;16365;51.598;7.668;2023-04-22T11:45:14;99924.03;;;27.85;29.49
29383;BME280;16365;51.598;7.668;2023-04-22T11:47:42;99934.31;;;27.82;29.52
29383;BME280;16365;51.598;7.668;2023-04-22T11:50:12;99927.97;;;27.78;29.59
29383;BME280;16365;51.598;7.668;2023-04-22T11:52:43;99930.28;;;27.71;29.24
29383;BME280;16365;51.598;7.668;2023-04-22T11:55:16;99921.84;;;27.67;29.39
29383;BME280;16365;51.598;7.668;2023-04-22T11:57:44;99924.97;;;27.60;30.07
29383;BME280;16365;51.598;7.668;2023-04-22T12:00:13;99925.56;;;27.55;29.63
29383;BME280;16365;51.598;7.668;2023-04-22T12:02:40;99922.06;;;27.51;29.87
29383;BME280;16365;51.598;7.668;2023-04-22T12:05:10;99918.22;;;27.45;29.64
29383;BME280;16365;51.598;7.668;2023-04-22T12:07:41;99918.69;;;27.43;29.99
29383;BME280;16365;51.598;7.668;2023-04-22T12:10:09;99920.75;;;27.42;30.72
29383;BME280;16365;51.598;7.668;2023-04-22T12:12:38;99925.19;;;27.44;29.70
29383;BME280;16365;51.598;7.668;2023-04-22T12:15:12;99923.91;;;27.45;30.21
29383;BME280;16365;51.598;7.668;2023-04-22T12:17:43;99918.22;;;27.45;29.90
29383;BME280;16365;51.598;7.668;2023-04-22T12:20:11;99920.94;;;27.48;30.21
29383;BME280;16365;51.598;7.668;2023-04-22T12:22:41;99920.16;;;27.48;29.99
29383;BME280;16365;51.598;7.668;2023-04-22T12:25:10;99918.41;;;27.50;30.52
29383;BME280;16365;51.598;7.668;2023-04-22T12:27:37;99920.03;;;27.51;30.43
29383;BME280;16365;51.598;7.668;2023-04-22T12:30:04;99919.88;;;27.55;30.62
29383;BME280;16365;51.598;7.668;2023-04-22T12:32:31;99921.78;;;27.58;30.74
29383;BME280;16365;51.598;7.668;2023-04-22T12:34:57;99924.97;;;27.60;30.24
29383;BME280;16365;51.598;7.668;2023-04-22T12:37:23;99919.13;;;27.63;30.34
29383;BME280;16365;51.598;7.668;2023-04-22T12:39:50;99910.91;;;27.65;30.06
29383;BME280;16365;51.598;7.668;2023-04-22T12:42:17;99921.06;;;27.66;30.41
29383;BME280;16365;51.598;7.668;2023-04-22T12:44:43;99915.38;;;27.66;29.81
29383;BME280;16365;51.598;7.668;2023-04-22T12:47:09;99917.75;;;27.68;29.55
29383;BME280;16365;51.598;7.668;2023-04-22T12:49:37;99918.22;;;27.66;29.47
29383;BME280;16365;51.598;7.668;2023-04-22T12:52:04;99925.50;;;27.67;30.42
29383;BME280;16365;51.598;7.668;2023-04-22T12:54:31;99921.72;;;27.71;29.99
29383;BME280;16365;51.598;7.668;2023-04-22T12:56:57;99927.88;;;27.69;29.62
29383;BME280;16365;51.598;7.668;2023-04-22T12:59:24;99923.44;;;27.68;29.78
29383;BME280;16365;51.598;7.668;2023-04-22T13:01:51;99921.84;;;27.67;29.75
29383;BME280;16365;51.598;7.668;2023-04-22T13:04:17;99920.28;;;27.66;29.63
29383;BME280;16365;51.598;7.668;2023-04-22T13:06:45;99920.28;;;27.66;29.71
29383;BME280;16365;51.598;7.668;2023-04-22T13:09:12;99913.44;;;27.63;29.92
29383;BME280;16365;51.598;7.668;2023-04-22T13:11:38;99915.50;;;27.63;29.59